Time;durP1;ratioP1;P1;durP2;ratioP2;P2;SDS_P1;SDS_P2;PMS_P1;PMS_P2;Temp;Humidity;BMP_temperature;BMP_pressure;BME280_temperature;BME280_humidity;BME280_pressure;Samples;Min_cycle;Max_cycle;Signal;HPM_P1;HPM_P2
2024/02/12 00:00:18;;;;;;;0.00;0.00;;;;;;;6.87;91.26;98960.22;15769512;28;20041;-53
2024/02/12 00:08:04;;;;;;;0.00;0.00;;;;;;;7.20;90.63;98969.53;15717629;28;20539;-50
2024/02/12 00:15:41;;;;;;;0.05;0.05;;;;;;;6.97;91.46;98963.13;15716714;28;20177;-51
2024/02/12 00:23:17;;;;;;;0.10;0.10;;;;;;;6.93;91.81;98974.47;15735040;28;20158;-49
2024/02/12 00:30:54;;;;;;;0.00;0.00;;;;;;;7.20;90.43;98980.19;15732189;28;20147;-52
2024/02/12 00:38:27;;;;;;;0.40;0.40;;;;;;;7.44;89.90;98987.16;15735773;28;20064;-51
2024/02/12 00:46:02;;;;;;;0.65;0.40;;;;;;;7.02;92.16;98986.44;15751646;28;20123;-49
2024/02/12 00:53:38;;;;;;;0.32;0.32;;;;;;;7.14;91.06;98990.75;15798306;28;20078;-50
2024/02/12 01:01:14;;;;;;;0.15;0.15;;;;;;;7.06;91.41;98988.41;15798572;28;20044;-50
2024/02/12 01:08:48;;;;;;;0.68;0.47;;;;;;;7.62;89.33;98978.22;15796797;28;20058;-47
2024/02/12 01:16:24;;;;;;;0.10;0.10;;;;;;;7.40;90.49;98996.69;15797773;28;20048;-51
2024/02/12 01:23:59;;;;;;;0.00;0.00;;;;;;;7.33;90.51;98991.47;15794316;28;20040;-53
2024/02/12 01:31:38;;;;;;;0.00;0.00;;;;;;;7.40;90.55;98999.34;15792489;28;20545;-48
2024/02/12 01:39:14;;;;;;;0.00;0.00;;;;;;;7.44;89.97;99005.84;15777850;28;20044;-50
2024/02/12 01:46:49;;;;;;;0.00;0.00;;;;;;;7.39;91.01;99005.72;15773794;28;20566;-48
2024/02/12 01:54:25;;;;;;;0.00;0.00;;;;;;;7.55;90.37;99002.34;15794087;28;20050;-51
2024/02/12 02:02:01;;;;;;;0.00;0.00;;;;;;;7.34;91.08;99010.94;15796393;28;20063;-49
2024/02/12 02:09:36;;;;;;;0.00;0.00;;;;;;;7.50;91.72;99007.56;15776981;28;20116;-50
2024/02/12 02:17:13;;;;;;;0.00;0.00;;;;;;;7.74;90.35;99007.56;15763911;28;20143;-48
2024/02/12 02:24:53;;;;;;;0.20;0.20;;;;;;;7.41;92.22;99011.63;15808801;28;20044;-50
2024/02/12 02:32:41;;;;;;;0.00;0.00;;;;;;;7.38;92.03;99018.28;15808364;28;20032;-50
2024/02/12 02:40:22;;;;;;;0.60;0.60;;;;;;;7.40;93.07;99016.16;15803790;28;20055;-49
2024/02/12 02:48:00;;;;;;;0.20;0.20;;;;;;;7.32;92.99;99021.88;15799235;28;20135;-49
2024/02/12 02:55:34;;;;;;;0.88;0.22;;;;;;;7.66;91.12;99012.22;15802207;28;20044;-49
2024/02/12 03:03:13;;;;;;;1.10;0.47;;;;;;;7.54;91.67;99032.78;15784369;28;20036;-49
2024/02/12 03:10:49;;;;;;;0.47;0.47;;;;;;;7.56;92.10;99029.88;15804273;28;20501;-49
2024/02/12 03:18:23;;;;;;;15.68;3.72;;;;;;;7.51;92.62;99033.25;15803232;28;20050;-48
2024/02/12 03:25:59;;;;;;;2.55;1.27;;;;;;;7.50;92.52;99025.44;15801957;28;20047;-47
2024/02/12 03:33:34;;;;;;;0.45;0.45;;;;;;;7.42;93.29;99031.97;15781325;28;20445;-47
2024/02/12 03:41:18;;;;;;;0.80;0.80;;;;;;;7.64;92.65;99046.34;15803416;28;20528;-48
2024/02/12 04:04:45;;;;;;;0.38;0.38;;;;;;;7.38;93.54;99063.66;15766604;28;20050;-45
2024/02/12 04:12:20;;;;;;;1.38;1.27;;;;;;;7.44;93.31;99071.78;15715312;28;20036;-45
2024/02/12 04:20:05;;;;;;;0.57;0.57;;;;;;;7.44;92.77;99069.91;15735586;28;20048;-47
2024/02/12 04:27:44;;;;;;;0.63;0.38;;;;;;;7.60;92.89;99084.41;15736210;28;20072;-47
2024/02/12 04:35:17;;;;;;;0.68;0.68;;;;;;;7.45;93.13;99089.41;15735453;28;20413;-47
2024/02/12 04:43:01;;;;;;;0.28;0.28;;;;;;;7.56;92.46;99086.75;15735184;28;20087;-45
2024/02/12 04:50:38;;;;;;;2.60;0.77;;;;;;;7.22;93.77;99098.19;15725332;28;20032;-48
2024/02/12 04:58:17;;;;;;;2.15;0.93;;;;;;;7.58;92.07;99103.34;15719859;28;20133;-48
2024/02/12 05:05:51;;;;;;;0.38;0.22;;;;;;;7.51;92.48;99123.22;15705013;28;20049;-48
2024/02/12 05:13:27;;;;;;;0.28;0.28;;;;;;;7.48;91.78;99118.31;15670037;28;20159;-51
2024/02/12 05:28:56;;;;;;;0.20;0.20;;;;;;;7.68;90.70;99135.63;15674163;28;20053;-48
2024/02/12 05:36:28;;;;;;;0.00;0.00;;;;;;;7.31;92.61;99142.19;15668623;28;20214;-44
2024/02/12 05:44:21;;;;;;;0.03;0.03;;;;;;;7.41;92.49;99145.94;15639648;28;20041;-48
2024/02/12 05:51:56;;;;;;;1.05;0.55;;;;;;;7.31;92.15;99156.34;15739044;28;20059;-47
2024/02/12 05:59:33;;;;;;;0.38;0.38;;;;;;;7.54;91.24;99179.63;15806212;28;20032;-49
2024/02/12 06:07:28;;;;;;;0.35;0.35;;;;;;;7.37;91.21;99176.00;15744807;28;20139;-47
2024/02/12 06:15:03;;;;;;;0.08;0.08;;;;;;;7.54;91.06;99194.81;15724835;28;20047;-51
2024/02/12 06:22:37;;;;;;;0.40;0.40;;;;;;;7.42;91.05;99205.47;15744764;28;20048;-44
2024/02/12 06:30:15;;;;;;;0.17;0.17;;;;;;;7.45;91.25;99213.00;15743799;28;20044;-49
2024/02/12 06:37:49;;;;;;;0.10;0.10;;;;;;;7.26;92.34;99214.09;15740453;28;20072;-49
2024/02/12 06:45:25;;;;;;;0.30;0.30;;;;;;;7.18;91.54;99227.75;15747121;28;20070;-44
2024/02/12 06:52:58;;;;;;;0.10;0.10;;;;;;;7.21;91.97;99248.66;15803699;28;20070;-47
2024/02/12 07:00:34;;;;;;;;;;;;;;;7.55;91.25;99247.97;15800513;28;20036;-44
2024/02/12 07:08:11;;;;;;;0.00;0.00;;;;;;;7.48;90.62;99262.47;15756105;28;19924;-46
2024/02/12 07:15:46;;;;;;;0.00;0.00;;;;;;;7.27;91.31;99277.91;15742032;28;20039;-50
2024/02/12 07:23:20;;;;;;;0.00;0.00;;;;;;;7.52;89.51;99288.50;15719984;28;20123;-47
2024/02/12 07:31:10;;;;;;;0.20;0.20;;;;;;;7.60;89.82;99301.53;15739773;28;20088;-49
2024/02/12 07:38:58;;;;;;;0.00;0.00;;;;;;;7.61;88.61;99300.50;15723137;28;20056;-45
2024/02/12 07:46:34;;;;;;;0.00;0.00;;;;;;;7.56;89.08;99319.06;15758335;28;20089;-47
2024/02/12 07:54:08;;;;;;;0.00;0.00;;;;;;;7.69;88.70;99328.72;15799166;28;20465;-47
2024/02/12 08:01:44;;;;;;;0.08;0.08;;;;;;;7.77;88.95;99336.44;15797795;28;20028;-50
2024/02/12 08:09:18;;;;;;;0.00;0.00;;;;;;;7.60;89.98;99351.44;15737797;28;20104;-47
2024/02/12 08:16:55;;;;;;;1.10;0.47;;;;;;;7.45;90.13;99359.03;15736291;28;20052;-45
2024/02/12 08:24:32;;;;;;;1.45;0.70;;;;;;;7.51;90.04;99376.84;15720155;28;20032;-46
2024/02/12 08:32:07;;;;;;;0.10;0.10;;;;;;;7.73;89.17;99379.84;15737338;28;20076;-44
2024/02/12 08:39:45;;;;;;;0.00;0.00;;;;;;;7.98;88.22;99393.09;15734671;28;20044;-45
2024/02/12 08:47:21;;;;;;;1.75;1.65;;;;;;;7.89;88.16;99401.41;15758769;28;20048;-49
2024/02/12 08:54:54;;;;;;;0.15;0.10;;;;;;;8.26;87.66;99411.22;15780650;28;20497;-48
2024/02/12 09:02:32;;;;;;;3.20;0.90;;;;;;;8.13;88.33;99422.91;15794520;28;20039;-51
2024/02/12 09:10:11;;;;;;;1.08;0.65;;;;;;;8.01;89.63;99430.03;15791045;28;20715;-44
2024/02/12 09:17:48;;;;;;;0.10;0.10;;;;;;;7.85;91.08;99439.50;15794513;28;20161;-49
2024/02/12 09:25:23;;;;;;;0.22;0.22;;;;;;;8.09;89.33;99445.75;15782194;28;20052;-50
2024/02/12 09:32:59;;;;;;;0.45;0.32;;;;;;;8.28;89.61;99455.38;15817746;28;20036;-45
2024/02/12 09:40:35;;;;;;;0.20;0.20;;;;;;;7.99;88.92;99473.03;15819176;28;20043;-49
2024/02/12 09:48:12;;;;;;;0.00;0.00;;;;;;;8.47;87.55;99474.06;15793319;28;20048;-45
2024/02/12 09:55:47;;;;;;;0.00;0.00;;;;;;;8.19;88.81;99481.59;15793745;22;20051;-52
2024/02/12 10:03:24;;;;;;;0.15;0.15;;;;;;;8.71;86.71;99491.81;15818735;28;20059;-52
2024/02/12 10:10:59;;;;;;;0.73;0.30;;;;;;;8.90;86.62;99495.22;15800902;28;20445;-53
2024/02/12 10:18:35;;;;;;;0.30;0.30;;;;;;;8.67;86.87;99499.50;15818899;28;20048;-51
2024/02/12 10:26:09;;;;;;;0.55;0.55;;;;;;;8.74;85.83;99510.09;15798335;28;20044;-52
2024/02/12 10:33:44;;;;;;;0.25;0.25;;;;;;;8.96;84.31;99513.06;15814740;28;20071;-53
2024/02/12 10:41:28;;;;;;;4.25;1.73;;;;;;;9.10;83.30;99514.47;15753589;28;20609;-51
2024/02/12 10:49:04;;;;;;;0.10;0.10;;;;;;;9.63;81.25;99510.88;15762264;28;20550;-54
2024/02/12 10:56:38;;;;;;;0.00;0.00;;;;;;;9.08;80.57;99521.09;15805004;28;20040;-54
2024/02/12 11:04:15;;;;;;;0.95;0.95;;;;;;;9.25;80.66;99527.41;15807490;28;20052;-51
2024/02/12 11:11:51;;;;;;;0.08;0.08;;;;;;;9.00;81.80;99535.66;15744814;28;20037;-57
2024/02/12 11:19:26;;;;;;;0.40;0.40;;;;;;;9.08;81.33;99543.31;15725833;28;20143;-54
2024/02/12 11:26:59;;;;;;;0.03;0.03;;;;;;;8.93;79.75;99543.75;15744382;28;20045;-55
2024/02/12 11:34:35;;;;;;;6.38;1.92;;;;;;;9.93;75.20;99555.47;15743471;28;20393;-56
2024/02/12 11:42:09;;;;;;;1.20;1.15;;;;;;;11.11;71.20;99551.38;15742827;28;20642;-52
2024/02/12 11:49:47;;;;;;;0.85;0.82;;;;;;;10.44;72.83;99559.25;15774164;28;20377;-53
2024/02/12 11:57:24;;;;;;;1.05;0.88;;;;;;;9.57;74.59;99564.59;15781320;28;20492;-51
2024/02/12 12:05:02;;;;;;;0.45;0.45;;;;;;;9.67;74.78;99589.75;15781405;28;20036;-52
2024/02/12 12:12:36;;;;;;;0.43;0.43;;;;;;;9.06;76.06;99604.31;15799419;28;20032;-51
2024/02/12 12:20:14;;;;;;;0.00;0.00;;;;;;;9.53;75.03;99600.91;15783931;28;20079;-53
2024/02/12 12:27:52;;;;;;;0.10;0.10;;;;;;;9.29;75.17;99608.91;15801481;28;20054;-53
2024/02/12 12:35:28;;;;;;;0.40;0.40;;;;;;;9.18;77.13;99618.53;15798464;28;20040;-54
2024/02/12 12:43:08;;;;;;;2.20;0.93;;;;;;;9.75;74.74;99625.28;15801207;28;20059;-55
2024/02/12 12:50:43;;;;;;;0.00;0.00;;;;;;;10.00;71.71;99617.84;15801484;28;20040;-56
2024/02/12 12:58:18;;;;;;;0.32;0.25;;;;;;;9.69;71.45;99635.88;15800183;28;20052;-57
2024/02/12 13:05:55;;;;;;;0.03;0.03;;;;;;;9.70;71.16;99642.88;15799382;28;20050;-53
2024/02/12 13:13:29;;;;;;;4.78;3.03;;;;;;;10.06;67.66;99649.06;15796152;28;20036;-55
2024/02/12 13:21:04;;;;;;;0.22;0.20;;;;;;;10.22;66.22;99655.59;15797538;28;20048;-54
2024/02/12 13:28:39;;;;;;;0.10;0.10;;;;;;;10.22;66.65;99659.09;15800191;28;20044;-54
2024/02/12 13:36:15;;;;;;;1.38;1.13;;;;;;;9.90;66.96;99668.53;15799342;28;20485;-53
2024/02/12 13:43:49;;;;;;;0.00;0.00;;;;;;;9.66;68.33;99697.16;15791695;28;20365;-55
2024/02/12 13:51:26;;;;;;;0.20;0.20;;;;;;;9.63;68.25;99698.44;15779015;28;20070;-55
2024/02/12 13:59:04;;;;;;;0.00;0.00;;;;;;;9.29;68.42;99715.22;15797209;28;20058;-55
2024/02/12 14:06:40;;;;;;;0.10;0.10;;;;;;;9.49;67.44;99722.97;15799158;28;20587;-56
2024/02/12 14:14:13;;;;;;;0.43;0.35;;;;;;;9.19;67.66;99732.63;15787343;28;20036;-53
2024/02/12 14:21:49;;;;;;;0.20;0.20;;;;;;;9.29;67.88;99748.16;15807258;28;20488;-54
2024/02/12 14:29:22;;;;;;;3.90;0.80;;;;;;;8.86;67.96;99759.81;15805058;28;20141;-54
2024/02/12 14:36:58;;;;;;;0.17;0.13;;;;;;;9.05;67.40;99765.16;15747496;28;20132;-53
2024/02/12 14:44:31;;;;;;;0.47;0.35;;;;;;;9.17;67.81;99782.91;15746697;28;20040;-53
2024/02/12 14:52:07;;;;;;;0.03;0.03;;;;;;;9.10;69.74;99792.88;15807627;28;20046;-51
2024/02/12 14:59:41;;;;;;;0.00;0.00;;;;;;;8.91;69.39;99809.97;15807570;28;20044;-52
2024/02/12 15:07:19;;;;;;;0.00;0.00;;;;;;;8.88;68.81;99821.13;15789530;28;20056;-54
2024/02/12 15:14:57;;;;;;;0.00;0.00;;;;;;;9.32;68.56;99837.94;15806966;28;20101;-55
2024/02/12 15:22:32;;;;;;;0.00;0.00;;;;;;;8.94;68.85;99847.81;15789155;28;20044;-57
2024/02/12 15:30:08;;;;;;;0.15;0.10;;;;;;;8.89;69.18;99855.69;15809156;28;20054;-54
2024/02/12 15:37:46;;;;;;;0.20;0.20;;;;;;;9.05;68.88;99881.06;15804465;28;20043;-53
2024/02/12 15:45:22;;;;;;;0.05;0.03;;;;;;;8.28;71.36;99895.66;15806059;28;20102;-54
2024/02/12 15:52:57;;;;;;;0.38;0.38;;;;;;;8.12;73.14;99915.72;15785341;28;20055;-55
2024/02/12 16:00:35;;;;;;;0.08;0.08;;;;;;;8.47;72.71;99908.09;15744170;22;20112;-48
2024/02/12 16:08:10;;;;;;;0.22;0.10;;;;;;;8.62;71.28;99907.78;15770625;28;20040;-50
2024/02/12 16:15:45;;;;;;;0.00;0.00;;;;;;;7.82;73.52;99934.16;15801562;28;20101;-50
2024/02/12 16:23:21;;;;;;;0.00;0.00;;;;;;;8.13;73.16;99942.22;15782716;28;20119;-51
2024/02/12 16:30:59;;;;;;;0.93;0.47;;;;;;;8.21;73.10;99954.53;15800225;28;20051;-48
2024/02/12 16:38:36;;;;;;;0.47;0.40;;;;;;;7.88;73.32;99970.69;15798894;28;20048;-50
2024/02/12 16:46:10;;;;;;;0.00;0.00;;;;;;;7.84;73.79;99982.84;15783534;28;20068;-49
2024/02/12 16:53:48;;;;;;;0.00;0.00;;;;;;;7.60;73.73;99990.53;15721150;28;20062;-53
2024/02/12 17:01:23;;;;;;;0.45;0.20;;;;;;;7.53;74.82;100002.25;15780274;28;20151;-51
2024/02/12 17:08:58;;;;;;;0.32;0.32;;;;;;;7.47;75.05;100013.75;15769016;28;20052;-51
2024/02/12 17:16:33;;;;;;;0.00;0.00;;;;;;;7.40;75.09;100021.75;15759240;28;20676;-50
2024/02/12 20:18:37;;;;;;;0.10;0.10;;;;;;;5.99;83.20;100280.13;15800753;28;20059;-50
2024/02/12 20:26:11;;;;;;;0.00;0.00;;;;;;;6.06;82.83;100290.81;15801177;28;20572;-49
2024/02/12 20:33:47;;;;;;;0.00;0.00;;;;;;;5.84;82.41;100276.69;15800319;28;20070;-50
2024/02/12 20:41:24;;;;;;;0.20;0.20;;;;;;;5.87;82.68;100314.41;15808813;28;20051;-48
2024/02/12 20:48:59;;;;;;;0.08;0.08;;;;;;;5.81;83.59;100336.47;15813999;28;20415;-50
2024/02/12 20:56:33;;;;;;;0.22;0.22;;;;;;;5.73;82.95;100344.56;15859904;28;20044;-50
2024/02/12 21:04:10;;;;;;;0.43;0.43;;;;;;;5.80;82.35;100355.31;15849618;28;20047;-47
2024/02/12 21:11:44;;;;;;;0.70;0.70;;;;;;;5.62;82.96;100363.72;15838040;28;20046;-49
2024/02/12 21:19:22;;;;;;;0.15;0.15;;;;;;;5.80;83.01;100363.28;15855617;28;20108;-50
2024/02/12 21:26:56;;;;;;;3.42;3.10;;;;;;;5.54;83.38;100372.59;15780343;28;20674;-48
2024/02/12 21:34:31;;;;;;;;;;;;;;;5.66;82.02;100378.28;15772300;28;20062;-48
2024/02/12 21:42:22;;;;;;;1.00;0.77;;;;;;;5.94;81.84;100390.94;15793174;28;19920;-52
2024/02/12 21:49:57;;;;;;;0.20;0.20;;;;;;;5.53;82.77;100407.41;15795992;28;20547;-47
2024/02/12 21:57:31;;;;;;;0.75;0.30;;;;;;;5.47;83.30;100416.16;15807911;22;20051;-53
2024/02/12 22:05:07;;;;;;;0.13;0.13;;;;;;;5.65;81.53;100423.75;15795982;28;20054;-52
2024/02/12 22:12:42;;;;;;;2.42;1.30;;;;;;;5.43;83.13;100423.69;15798343;28;20489;-50
2024/02/12 22:20:17;;;;;;;0.75;0.75;;;;;;;5.63;82.73;100439.91;15783237;28;20036;-50
2024/02/12 22:27:53;;;;;;;0.05;0.05;;;;;;;5.09;85.69;100449.00;15802694;28;20040;-50
2024/02/12 22:35:29;;;;;;;0.30;0.30;;;;;;;4.94;86.62;100458.75;15801373;28;20130;-52
2024/02/12 22:43:03;;;;;;;0.63;0.63;;;;;;;5.15;86.29;100473.22;15806663;28;20035;-52
2024/02/12 22:50:41;;;;;;;0.45;0.45;;;;;;;4.95;86.65;100479.06;15789233;28;20060;-50
2024/02/12 22:58:15;;;;;;;0.73;0.73;;;;;;;5.00;87.25;100495.28;15832869;28;20055;-51
2024/02/12 23:05:50;;;;;;;0.82;0.82;;;;;;;5.02;86.63;100493.25;15790537;28;20112;-47
2024/02/12 23:13:24;;;;;;;21.13;1.55;;;;;;;5.32;86.11;100519.94;15846502;28;20040;-48
2024/02/12 23:21:00;;;;;;;0.13;0.13;;;;;;;5.04;86.92;100533.00;15865158;28;20453;-50
2024/02/12 23:28:37;;;;;;;1.83;1.40;;;;;;;4.83;86.70;100538.97;15868059;28;20092;-52
2024/02/12 23:36:17;;;;;;;0.30;0.30;;;;;;;4.89;86.32;100546.22;15846762;28;20059;-54
2024/02/12 23:43:52;;;;;;;0.57;0.30;;;;;;;4.71;87.96;100553.69;15843002;28;20567;-51
2024/02/12 23:51:29;;;;;;;0.10;0.10;;;;;;;4.82;86.88;100570.06;15804604;28;20056;-53
2024/02/12 23:59:03;;;;;;;0.00;0.00;;;;;;;4.78;86.08;100573.25;15823153;28;20047;-54
